sensor_id;sensor_type;location;lat;lon;timestamp;P1;durP1;ratioP1;P2;durP2;ratioP2
34890;SDS011;21103;51.358;12.412;2022-10-12T00:02:01;16.60;;;6.80;;
34890;SDS011;21103;51.358;12.412;2022-10-12T00:04:27;13.10;;;6.63;;
34890;SDS011;21103;51.358;12.412;2022-10-12T00:06:52;14.85;;;6.30;;
34890;SDS011;21103;51.358;12.412;2022-10-12T00:09:18;10.95;;;6.75;;
34890;SDS011;21103;51.358;12.412;2022-10-12T00:11:43;16.05;;;5.78;;
34890;SDS011;21103;51.358;12.412;2022-10-12T00:14:09;11.55;;;5.55;;
34890;SDS011;21103;51.358;12.412;2022-10-12T00:16:34;12.05;;;6.97;;
34890;SDS011;21103;51.358;12.412;2022-10-12T00:19:01;13.38;;;5.72;;
34890;SDS011;21103;51.358;12.412;2022-10-12T00:21:27;14.15;;;7.45;;
34890;SDS011;21103;51.358;12.412;2022-10-12T00:23:58;14.38;;;6.32;;
34890;SDS011;21103;51.358;12.412;2022-10-12T00:26:25;12.43;;;6.45;;
34890;SDS011;21103;51.358;12.412;2022-10-12T00:28:55;13.32;;;6.05;;
34890;SDS011;21103;51.358;12.412;2022-10-12T00:31:23;11.63;;;5.97;;
34890;SDS011;21103;51.358;12.412;2022-10-12T00:33:50;13.52;;;6.80;;
34890;SDS011;21103;51.358;12.412;2022-10-12T00:38:43;11.25;;;6.38;;
34890;SDS011;21103;51.358;12.412;2022-10-12T00:41:09;13.65;;;6.63;;
34890;SDS011;21103;51.358;12.412;2022-10-12T00:43:36;13.65;;;6.07;;
34890;SDS011;21103;51.358;12.412;2022-10-12T00:46:06;10.85;;;6.15;;
34890;SDS011;21103;51.358;12.412;2022-10-12T00:48:37;9.80;;;4.20;;
34890;SDS011;21103;51.358;12.412;2022-10-12T00:51:03;9.95;;;5.38;;
34890;SDS011;21103;51.358;12.412;2022-10-12T00:53:38;14.68;;;6.43;;
34890;SDS011;21103;51.358;12.412;2022-10-12T00:56:10;9.48;;;5.70;;
34890;SDS011;21103;51.358;12.412;2022-10-12T00:58:42;13.52;;;6.47;;
34890;SDS011;21103;51.358;12.412;2022-10-12T01:01:09;13.32;;;6.95;;
34890;SDS011;21103;51.358;12.412;2022-10-12T01:03:35;13.82;;;6.10;;
34890;SDS011;21103;51.358;12.412;2022-10-12T01:06:01;12.30;;;6.35;;
34890;SDS011;21103;51.358;12.412;2022-10-12T01:08:27;15.15;;;6.22;;
34890;SDS011;21103;51.358;12.412;2022-10-12T01:10:53;13.63;;;7.05;;
34890;SDS011;21103;51.358;12.412;2022-10-12T01:13:19;9.48;;;5.50;;
34890;SDS011;21103;51.358;12.412;2022-10-12T01:18:58;7.32;;;5.57;;
34890;SDS011;21103;51.358;12.412;2022-10-12T01:21:52;11.85;;;5.72;;
34890;SDS011;21103;51.358;12.412;2022-10-12T01:27:17;12.45;;;6.00;;
34890;SDS011;21103;51.358;12.412;2022-10-12T01:32:44;15.23;;;6.10;;
34890;SDS011;21103;51.358;12.412;2022-10-12T01:35:36;15.55;;;5.13;;
34890;SDS011;21103;51.358;12.412;2022-10-12T01:43:50;12.65;;;6.03;;
34890;SDS011;21103;51.358;12.412;2022-10-12T01:48:42;8.20;;;5.75;;
34890;SDS011;21103;51.358;12.412;2022-10-12T01:51:10;9.95;;;6.38;;
34890;SDS011;21103;51.358;12.412;2022-10-12T01:59:03;14.70;;;6.15;;
34890;SDS011;21103;51.358;12.412;2022-10-12T02:01:41;12.65;;;6.32;;
34890;SDS011;21103;51.358;12.412;2022-10-12T02:04:25;13.15;;;6.38;;
34890;SDS011;21103;51.358;12.412;2022-10-12T02:07:09;9.98;;;5.78;;
34890;SDS011;21103;51.358;12.412;2022-10-12T02:09:40;11.75;;;5.93;;
34890;SDS011;21103;51.358;12.412;2022-10-12T02:12:08;14.32;;;6.88;;
34890;SDS011;21103;51.358;12.412;2022-10-12T02:14:38;13.25;;;5.97;;
34890;SDS011;21103;51.358;12.412;2022-10-12T02:17:10;10.82;;;5.45;;
34890;SDS011;21103;51.358;12.412;2022-10-12T02:19:39;10.15;;;5.70;;
34890;SDS011;21103;51.358;12.412;2022-10-12T02:22:08;9.00;;;5.57;;
34890;SDS011;21103;51.358;12.412;2022-10-12T02:24:36;13.63;;;5.57;;
34890;SDS011;21103;51.358;12.412;2022-10-12T02:27:04;14.88;;;6.95;;
34890;SDS011;21103;51.358;12.412;2022-10-12T02:29:35;14.98;;;6.47;;
34890;SDS011;21103;51.358;12.412;2022-10-12T02:37:47;8.15;;;5.57;;
34890;SDS011;21103;51.358;12.412;2022-10-12T02:42:55;12.23;;;5.97;;
34890;SDS011;21103;51.358;12.412;2022-10-12T02:45:25;12.00;;;5.57;;
34890;SDS011;21103;51.358;12.412;2022-10-12T02:47:53;11.23;;;6.63;;
34890;SDS011;21103;51.358;12.412;2022-10-12T02:50:21;13.73;;;6.20;;
34890;SDS011;21103;51.358;12.412;2022-10-12T02:52:48;12.50;;;5.72;;
34890;SDS011;21103;51.358;12.412;2022-10-12T02:55:14;15.40;;;6.28;;
34890;SDS011;21103;51.358;12.412;2022-10-12T02:57:40;11.48;;;6.80;;
34890;SDS011;21103;51.358;12.412;2022-10-12T03:00:06;14.75;;;6.57;;
34890;SDS011;21103;51.358;12.412;2022-10-12T03:02:32;9.40;;;5.90;;
34890;SDS011;21103;51.358;12.412;2022-10-12T03:04:57;10.55;;;6.88;;
34890;SDS011;21103;51.358;12.412;2022-10-12T03:07:23;13.23;;;5.93;;
34890;SDS011;21103;51.358;12.412;2022-10-12T03:09:48;12.10;;;5.57;;
34890;SDS011;21103;51.358;12.412;2022-10-12T03:12:14;10.90;;;6.38;;
34890;SDS011;21103;51.358;12.412;2022-10-12T03:14:40;6.60;;;4.93;;
34890;SDS011;21103;51.358;12.412;2022-10-12T03:17:05;10.35;;;6.40;;
34890;SDS011;21103;51.358;12.412;2022-10-12T03:19:31;9.73;;;5.95;;
34890;SDS011;21103;51.358;12.412;2022-10-12T03:21:56;15.50;;;5.70;;
34890;SDS011;21103;51.358;12.412;2022-10-12T03:24:22;16.83;;;6.32;;
34890;SDS011;21103;51.358;12.412;2022-10-12T03:26:47;10.40;;;6.15;;
34890;SDS011;21103;51.358;12.412;2022-10-12T03:29:13;10.77;;;6.20;;
34890;SDS011;21103;51.358;12.412;2022-10-12T03:31:38;13.40;;;5.88;;
34890;SDS011;21103;51.358;12.412;2022-10-12T03:34:04;11.18;;;5.63;;
34890;SDS011;21103;51.358;12.412;2022-10-12T03:36:29;8.10;;;5.13;;
34890;SDS011;21103;51.358;12.412;2022-10-12T03:38:55;10.43;;;5.82;;
34890;SDS011;21103;51.358;12.412;2022-10-12T03:41:21;12.07;;;6.70;;
34890;SDS011;21103;51.358;12.412;2022-10-12T03:43:46;16.67;;;6.05;;
34890;SDS011;21103;51.358;12.412;2022-10-12T03:46:12;10.00;;;6.07;;
34890;SDS011;21103;51.358;12.412;2022-10-12T03:48:38;12.95;;;6.05;;
34890;SDS011;21103;51.358;12.412;2022-10-12T03:51:04;11.18;;;6.15;;
34890;SDS011;21103;51.358;12.412;2022-10-12T03:53:31;12.55;;;6.30;;
34890;SDS011;21103;51.358;12.412;2022-10-12T03:55:56;11.48;;;6.47;;
34890;SDS011;21103;51.358;12.412;2022-10-12T03:58:22;12.40;;;6.53;;
34890;SDS011;21103;51.358;12.412;2022-10-12T04:00:51;12.82;;;7.00;;
34890;SDS011;21103;51.358;12.412;2022-10-12T04:03:17;17.55;;;7.00;;
34890;SDS011;21103;51.358;12.412;2022-10-12T04:05:42;12.80;;;7.18;;
34890;SDS011;21103;51.358;12.412;2022-10-12T04:08:08;11.55;;;6.35;;
34890;SDS011;21103;51.358;12.412;2022-10-12T04:10:33;13.10;;;7.35;;
34890;SDS011;21103;51.358;12.412;2022-10-12T04:12:59;16.60;;;7.65;;
34890;SDS011;21103;51.358;12.412;2022-10-12T04:15:24;11.55;;;6.85;;
34890;SDS011;21103;51.358;12.412;2022-10-12T04:17:50;15.25;;;7.20;;
34890;SDS011;21103;51.358;12.412;2022-10-12T04:20:16;11.30;;;7.63;;
34890;SDS011;21103;51.358;12.412;2022-10-12T04:22:42;15.45;;;7.75;;
34890;SDS011;21103;51.358;12.412;2022-10-12T04:25:08;17.13;;;7.43;;
34890;SDS011;21103;51.358;12.412;2022-10-12T04:27:35;12.27;;;6.47;;
34890;SDS011;21103;51.358;12.412;2022-10-12T04:30:00;11.30;;;6.88;;
34890;SDS011;21103;51.358;12.412;2022-10-12T04:32:26;13.68;;;8.18;;
34890;SDS011;21103;51.358;12.412;2022-10-12T04:34:51;12.02;;;6.63;;
34890;SDS011;21103;51.358;12.412;2022-10-12T04:37:17;10.45;;;6.05;;
34890;SDS011;21103;51.358;12.412;2022-10-12T04:39:42;11.60;;;6.32;;
34890;SDS011;21103;51.358;12.412;2022-10-12T04:42:08;11.05;;;6.28;;
34890;SDS011;21103;51.358;12.412;2022-10-12T04:44:33;10.00;;;5.20;;
34890;SDS011;21103;51.358;12.412;2022-10-12T04:46:59;8.82;;;5.60;;
34890;SDS011;21103;51.358;12.412;2022-10-12T04:49:25;19.75;;;6.25;;
34890;SDS011;21103;51.358;12.412;2022-10-12T04:51:51;9.70;;;4.97;;
34890;SDS011;21103;51.358;12.412;2022-10-12T04:54:16;7.63;;;4.80;;
34890;SDS011;21103;51.358;12.412;2022-10-12T04:56:42;7.70;;;5.38;;
34890;SDS011;21103;51.358;12.412;2022-10-12T04:59:07;8.57;;;4.20;;
34890;SDS011;21103;51.358;12.412;2022-10-12T05:01:33;10.15;;;5.25;;
34890;SDS011;21103;51.358;12.412;2022-10-12T05:03:58;15.02;;;5.57;;
34890;SDS011;21103;51.358;12.412;2022-10-12T05:06:24;9.48;;;5.32;;
34890;SDS011;21103;51.358;12.412;2022-10-12T05:08:50;9.25;;;5.50;;
34890;SDS011;21103;51.358;12.412;2022-10-12T05:11:15;9.63;;;5.40;;
34890;SDS011;21103;51.358;12.412;2022-10-12T05:13:41;11.95;;;7.68;;
34890;SDS011;21103;51.358;12.412;2022-10-12T05:16:07;11.43;;;6.65;;
34890;SDS011;21103;51.358;12.412;2022-10-12T05:18:32;12.93;;;6.43;;
34890;SDS011;21103;51.358;12.412;2022-10-12T05:20:58;10.05;;;6.47;;
34890;SDS011;21103;51.358;12.412;2022-10-12T05:23:23;14.13;;;6.70;;
34890;SDS011;21103;51.358;12.412;2022-10-12T05:25:49;14.63;;;6.55;;
34890;SDS011;21103;51.358;12.412;2022-10-12T05:28:14;9.32;;;5.97;;
34890;SDS011;21103;51.358;12.412;2022-10-12T05:30:40;11.77;;;5.25;;
34890;SDS011;21103;51.358;12.412;2022-10-12T05:33:05;9.88;;;6.03;;
34890;SDS011;21103;51.358;12.412;2022-10-12T05:35:33;13.18;;;5.85;;
34890;SDS011;21103;51.358;12.412;2022-10-12T05:37:59;13.35;;;5.72;;
34890;SDS011;21103;51.358;12.412;2022-10-12T05:40:24;8.98;;;5.25;;
34890;SDS011;21103;51.358;12.412;2022-10-12T05:42:50;12.30;;;6.28;;
34890;SDS011;21103;51.358;12.412;2022-10-12T05:45:15;12.88;;;5.88;;
34890;SDS011;21103;51.358;12.412;2022-10-12T05:47:41;9.68;;;5.03;;
34890;SDS011;21103;51.358;12.412;2022-10-12T05:50:07;7.75;;;5.28;;
34890;SDS011;21103;51.358;12.412;2022-10-12T05:52:32;14.07;;;5.72;;
34890;SDS011;21103;51.358;12.412;2022-10-12T05:54:58;9.07;;;4.93;;
34890;SDS011;21103;51.358;12.412;2022-10-12T05:57:23;13.73;;;5.68;;
34890;SDS011;21103;51.358;12.412;2022-10-12T05:59:49;11.13;;;6.22;;
34890;SDS011;21103;51.358;12.412;2022-10-12T06:02:15;12.20;;;5.70;;
34890;SDS011;21103;51.358;12.412;2022-10-12T06:04:41;11.52;;;6.57;;
34890;SDS011;21103;51.358;12.412;2022-10-12T06:07:07;11.93;;;6.28;;
34890;SDS011;21103;51.358;12.412;2022-10-12T06:09:32;11.43;;;6.07;;
34890;SDS011;21103;51.358;12.412;2022-10-12T06:11:59;10.52;;;5.95;;
34890;SDS011;21103;51.358;12.412;2022-10-12T06:14:24;11.85;;;5.90;;
34890;SDS011;21103;51.358;12.412;2022-10-12T06:16:50;9.85;;;5.45;;
34890;SDS011;21103;51.358;12.412;2022-10-12T06:19:15;10.48;;;6.28;;
34890;SDS011;21103;51.358;12.412;2022-10-12T06:21:41;10.23;;;6.07;;
34890;SDS011;21103;51.358;12.412;2022-10-12T06:24:06;10.00;;;6.28;;
34890;SDS011;21103;51.358;12.412;2022-10-12T06:26:32;11.98;;;6.65;;
34890;SDS011;21103;51.358;12.412;2022-10-12T06:28:58;12.85;;;5.88;;
34890;SDS011;21103;51.358;12.412;2022-10-12T06:31:24;14.95;;;5.95;;
34890;SDS011;21103;51.358;12.412;2022-10-12T06:33:51;13.88;;;7.15;;
34890;SDS011;21103;51.358;12.412;2022-10-12T06:36:17;11.52;;;5.55;;
34890;SDS011;21103;51.358;12.412;2022-10-12T06:38:43;15.27;;;7.10;;
34890;SDS011;21103;51.358;12.412;2022-10-12T06:41:08;19.10;;;6.10;;
34890;SDS011;21103;51.358;12.412;2022-10-12T06:43:34;16.83;;;7.70;;
34890;SDS011;21103;51.358;12.412;2022-10-12T06:45:59;9.35;;;6.60;;
34890;SDS011;21103;51.358;12.412;2022-10-12T06:48:26;10.68;;;6.45;;
34890;SDS011;21103;51.358;12.412;2022-10-12T06:50:52;13.23;;;6.35;;
34890;SDS011;21103;51.358;12.412;2022-10-12T06:53:17;15.23;;;7.20;;
34890;SDS011;21103;51.358;12.412;2022-10-12T06:55:43;14.15;;;7.03;;
34890;SDS011;21103;51.358;12.412;2022-10-12T06:58:09;12.85;;;6.13;;
34890;SDS011;21103;51.358;12.412;2022-10-12T07:00:35;12.05;;;5.40;;
34890;SDS011;21103;51.358;12.412;2022-10-12T07:03:01;13.77;;;5.85;;
34890;SDS011;21103;51.358;12.412;2022-10-12T07:05:27;12.82;;;5.97;;
34890;SDS011;21103;51.358;12.412;2022-10-12T07:07:53;12.27;;;6.57;;
34890;SDS011;21103;51.358;12.412;2022-10-12T07:10:19;11.05;;;5.47;;
34890;SDS011;21103;51.358;12.412;2022-10-12T07:12:45;19.90;;;6.90;;
34890;SDS011;21103;51.358;12.412;2022-10-12T07:15:10;15.50;;;5.53;;
34890;SDS011;21103;51.358;12.412;2022-10-12T07:17:36;12.13;;;5.55;;
34890;SDS011;21103;51.358;12.412;2022-10-12T07:20:01;17.45;;;6.07;;
34890;SDS011;21103;51.358;12.412;2022-10-12T07:22:28;12.15;;;6.13;;
34890;SDS011;21103;51.358;12.412;2022-10-12T07:24:53;11.82;;;5.65;;
34890;SDS011;21103;51.358;12.412;2022-10-12T07:27:19;18.52;;;6.53;;
34890;SDS011;21103;51.358;12.412;2022-10-12T07:29:44;15.63;;;5.07;;
34890;SDS011;21103;51.358;12.412;2022-10-12T07:32:10;13.20;;;5.47;;
34890;SDS011;21103;51.358;12.412;2022-10-12T07:34:35;11.75;;;6.03;;
34890;SDS011;21103;51.358;12.412;2022-10-12T07:37:01;10.98;;;5.78;;
34890;SDS011;21103;51.358;12.412;2022-10-12T07:39:26;11.57;;;5.30;;
34890;SDS011;21103;51.358;12.412;2022-10-12T07:41:52;10.50;;;4.45;;
34890;SDS011;21103;51.358;12.412;2022-10-12T07:44:19;12.75;;;5.53;;
34890;SDS011;21103;51.358;12.412;2022-10-12T07:46:45;14.90;;;6.20;;
34890;SDS011;21103;51.358;12.412;2022-10-12T07:49:11;6.35;;;4.65;;
34890;SDS011;21103;51.358;12.412;2022-10-12T07:51:37;7.05;;;5.15;;
34890;SDS011;21103;51.358;12.412;2022-10-12T07:54:03;8.93;;;4.60;;
34890;SDS011;21103;51.358;12.412;2022-10-12T07:56:29;18.95;;;5.63;;
34890;SDS011;21103;51.358;12.412;2022-10-12T07:58:55;18.88;;;5.28;;
34890;SDS011;21103;51.358;12.412;2022-10-12T08:01:22;11.90;;;3.70;;
34890;SDS011;21103;51.358;12.412;2022-10-12T08:03:50;10.80;;;4.43;;
34890;SDS011;21103;51.358;12.412;2022-10-12T08:06:18;10.70;;;3.72;;
34890;SDS011;21103;51.358;12.412;2022-10-12T08:08:46;9.45;;;4.93;;
34890;SDS011;21103;51.358;12.412;2022-10-12T08:11:12;9.50;;;3.72;;
34890;SDS011;21103;51.358;12.412;2022-10-12T08:13:37;9.02;;;3.50;;
34890;SDS011;21103;51.358;12.412;2022-10-12T08:16:04;7.03;;;4.13;;
34890;SDS011;21103;51.358;12.412;2022-10-12T08:18:33;13.40;;;3.80;;
34890;SDS011;21103;51.358;12.412;2022-10-12T08:20:58;12.10;;;4.10;;
34890;SDS011;21103;51.358;12.412;2022-10-12T08:23:24;12.38;;;4.05;;
34890;SDS011;21103;51.358;12.412;2022-10-12T08:25:53;7.85;;;3.50;;
34890;SDS011;21103;51.358;12.412;2022-10-12T08:28:23;9.52;;;3.65;;
34890;SDS011;21103;51.358;12.412;2022-10-12T08:30:49;10.57;;;3.55;;
34890;SDS011;21103;51.358;12.412;2022-10-12T08:33:15;7.22;;;3.90;;
34890;SDS011;21103;51.358;12.412;2022-10-12T08:35:42;8.57;;;4.18;;
34890;SDS011;21103;51.358;12.412;2022-10-12T08:38:08;9.02;;;3.38;;
34890;SDS011;21103;51.358;12.412;2022-10-12T08:40:42;14.57;;;3.28;;
34890;SDS011;21103;51.358;12.412;2022-10-12T08:46:05;9.18;;;2.30;;
34890;SDS011;21103;51.358;12.412;2022-10-12T08:51:13;8.05;;;3.17;;
34890;SDS011;21103;51.358;12.412;2022-10-12T08:54:02;10.57;;;2.33;;
34890;SDS011;21103;51.358;12.412;2022-10-12T08:56:30;8.27;;;2.00;;
34890;SDS011;21103;51.358;12.412;2022-10-12T08:58:58;12.32;;;2.00;;
34890;SDS011;21103;51.358;12.412;2022-10-12T09:01:29;8.25;;;1.90;;
34890;SDS011;21103;51.358;12.412;2022-10-12T09:14:49;9.45;;;1.73;;
34890;SDS011;21103;51.358;12.412;2022-10-12T09:20:05;4.95;;;1.60;;
34890;SDS011;21103;51.358;12.412;2022-10-12T09:22:38;7.22;;;2.15;;
34890;SDS011;21103;51.358;12.412;2022-10-12T09:25:05;4.50;;;1.42;;
34890;SDS011;21103;51.358;12.412;2022-10-12T09:27:41;9.35;;;2.22;;
34890;SDS011;21103;51.358;12.412;2022-10-12T09:30:11;5.50;;;1.80;;
34890;SDS011;21103;51.358;12.412;2022-10-12T09:35:25;8.40;;;1.77;;
34890;SDS011;21103;51.358;12.412;2022-10-12T09:37:51;8.65;;;2.08;;
34890;SDS011;21103;51.358;12.412;2022-10-12T09:40:22;9.02;;;1.88;;
34890;SDS011;21103;51.358;12.412;2022-10-12T09:42:51;5.70;;;2.00;;
34890;SDS011;21103;51.358;12.412;2022-10-12T09:45:19;6.43;;;2.00;;
34890;SDS011;21103;51.358;12.412;2022-10-12T09:50:38;6.70;;;1.65;;
34890;SDS011;21103;51.358;12.412;2022-10-12T09:53:12;10.13;;;2.15;;
34890;SDS011;21103;51.358;12.412;2022-10-12T09:58:20;7.68;;;1.70;;
34890;SDS011;21103;51.358;12.412;2022-10-12T10:00:50;5.03;;;1.52;;
34890;SDS011;21103;51.358;12.412;2022-10-12T10:03:43;6.68;;;1.90;;
34890;SDS011;21103;51.358;12.412;2022-10-12T10:06:10;8.68;;;2.00;;
34890;SDS011;21103;51.358;12.412;2022-10-12T10:08:42;14.98;;;3.45;;
34890;SDS011;21103;51.358;12.412;2022-10-12T10:11:27;8.98;;;1.50;;
34890;SDS011;21103;51.358;12.412;2022-10-12T10:13:57;9.00;;;1.95;;
34890;SDS011;21103;51.358;12.412;2022-10-12T10:16:25;7.75;;;1.80;;
34890;SDS011;21103;51.358;12.412;2022-10-12T10:21:50;5.68;;;1.48;;
34890;SDS011;21103;51.358;12.412;2022-10-12T10:27:26;6.72;;;1.58;;
34890;SDS011;21103;51.358;12.412;2022-10-12T10:30:08;8.18;;;1.92;;
34890;SDS011;21103;51.358;12.412;2022-10-12T10:32:33;5.22;;;1.42;;
34890;SDS011;21103;51.358;12.412;2022-10-12T10:37:43;3.88;;;1.63;;
34890;SDS011;21103;51.358;12.412;2022-10-12T10:40:30;11.98;;;1.70;;
34890;SDS011;21103;51.358;12.412;2022-10-12T10:42:57;7.97;;;2.08;;
34890;SDS011;21103;51.358;12.412;2022-10-12T10:45:29;7.55;;;2.20;;
34890;SDS011;21103;51.358;12.412;2022-10-12T10:48:05;4.40;;;1.80;;
34890;SDS011;21103;51.358;12.412;2022-10-12T10:50:34;7.35;;;1.70;;
34890;SDS011;21103;51.358;12.412;2022-10-12T10:53:04;11.00;;;2.00;;
34890;SDS011;21103;51.358;12.412;2022-10-12T10:56:11;7.40;;;2.22;;
34890;SDS011;21103;51.358;12.412;2022-10-12T10:58:34;14.02;;;1.98;;
34890;SDS011;21103;51.358;12.412;2022-10-12T11:01:14;7.10;;;1.95;;
34890;SDS011;21103;51.358;12.412;2022-10-12T11:04:06;12.68;;;2.63;;
34890;SDS011;21103;51.358;12.412;2022-10-12T11:06:38;11.43;;;1.80;;
34890;SDS011;21103;51.358;12.412;2022-10-12T11:09:26;6.90;;;2.08;;
34890;SDS011;21103;51.358;12.412;2022-10-12T11:12:28;6.53;;;1.67;;
34890;SDS011;21103;51.358;12.412;2022-10-12T11:14:53;6.13;;;1.63;;
34890;SDS011;21103;51.358;12.412;2022-10-12T11:17:26;7.40;;;2.08;;
34890;SDS011;21103;51.358;12.412;2022-10-12T11:20:20;10.35;;;2.15;;
34890;SDS011;21103;51.358;12.412;2022-10-12T11:22:57;8.00;;;1.58;;
34890;SDS011;21103;51.358;12.412;2022-10-12T11:28:02;6.43;;;1.80;;
34890;SDS011;21103;51.358;12.412;2022-10-12T11:30:35;8.90;;;1.80;;
34890;SDS011;21103;51.358;12.412;2022-10-12T11:33:19;9.40;;;2.08;;
34890;SDS011;21103;51.358;12.412;2022-10-12T11:35:49;9.23;;;1.58;;
34890;SDS011;21103;51.358;12.412;2022-10-12T11:38:26;5.80;;;1.38;;
34890;SDS011;21103;51.358;12.412;2022-10-12T11:41:02;5.85;;;1.85;;
34890;SDS011;21103;51.358;12.412;2022-10-12T11:43:45;5.53;;;2.05;;
34890;SDS011;21103;51.358;12.412;2022-10-12T11:46:17;9.20;;;1.67;;
34890;SDS011;21103;51.358;12.412;2022-10-12T11:49:16;14.63;;;1.40;;
34890;SDS011;21103;51.358;12.412;2022-10-12T11:51:50;5.72;;;1.63;;
34890;SDS011;21103;51.358;12.412;2022-10-12T11:54:27;6.50;;;1.52;;
34890;SDS011;21103;51.358;12.412;2022-10-12T11:57:00;9.00;;;2.13;;
34890;SDS011;21103;51.358;12.412;2022-10-12T11:59:37;8.05;;;1.65;;
34890;SDS011;21103;51.358;12.412;2022-10-12T12:02:51;8.40;;;1.75;;
34890;SDS011;21103;51.358;12.412;2022-10-12T12:05:04;6.10;;;1.52;;
34890;SDS011;21103;51.358;12.412;2022-10-12T12:07:49;4.60;;;1.58;;
34890;SDS011;21103;51.358;12.412;2022-10-12T12:15:37;3.40;;;1.58;;
34890;SDS011;21103;51.358;12.412;2022-10-12T12:18:14;6.72;;;1.40;;
34890;SDS011;21103;51.358;12.412;2022-10-12T12:23:51;6.60;;;1.40;;
34890;SDS011;21103;51.358;12.412;2022-10-12T12:26:16;6.18;;;1.63;;
34890;SDS011;21103;51.358;12.412;2022-10-12T12:28:43;5.40;;;1.85;;
34890;SDS011;21103;51.358;12.412;2022-10-12T12:31:31;5.93;;;1.70;;
34890;SDS011;21103;51.358;12.412;2022-10-12T12:36:31;5.68;;;1.90;;
34890;SDS011;21103;51.358;12.412;2022-10-12T12:38:59;7.68;;;1.80;;
34890;SDS011;21103;51.358;12.412;2022-10-12T12:41:27;5.90;;;1.90;;
34890;SDS011;21103;51.358;12.412;2022-10-12T12:53:06;6.45;;;2.05;;
34890;SDS011;21103;51.358;12.412;2022-10-12T12:55:41;9.50;;;1.95;;
34890;SDS011;21103;51.358;12.412;2022-10-12T13:12:01;4.43;;;1.80;;
34890;SDS011;21103;51.358;12.412;2022-10-12T13:17:41;4.75;;;2.03;;
34890;SDS011;21103;51.358;12.412;2022-10-12T13:20:30;6.55;;;2.45;;
34890;SDS011;21103;51.358;12.412;2022-10-12T13:22:58;8.43;;;2.60;;
34890;SDS011;21103;51.358;12.412;2022-10-12T13:25:29;6.03;;;1.65;;
34890;SDS011;21103;51.358;12.412;2022-10-12T13:28:06;6.75;;;2.00;;
34890;SDS011;21103;51.358;12.412;2022-10-12T13:30:40;9.48;;;1.85;;
34890;SDS011;21103;51.358;12.412;2022-10-12T13:34:08;4.93;;;2.15;;
34890;SDS011;21103;51.358;12.412;2022-10-12T13:36:23;4.80;;;1.80;;
34890;SDS011;21103;51.358;12.412;2022-10-12T13:38:54;6.85;;;1.67;;
34890;SDS011;21103;51.358;12.412;2022-10-12T13:41:21;6.13;;;2.70;;
34890;SDS011;21103;51.358;12.412;2022-10-12T13:43:50;5.35;;;2.40;;
34890;SDS011;21103;51.358;12.412;2022-10-12T13:46:40;7.38;;;2.20;;
34890;SDS011;21103;51.358;12.412;2022-10-12T13:49:30;9.50;;;2.78;;
34890;SDS011;21103;51.358;12.412;2022-10-12T13:54:37;7.68;;;2.28;;
34890;SDS011;21103;51.358;12.412;2022-10-12T14:00:09;11.13;;;1.98;;
34890;SDS011;21103;51.358;12.412;2022-10-12T14:05:03;3.10;;;1.55;;
34890;SDS011;21103;51.358;12.412;2022-10-12T14:07:36;10.82;;;2.10;;
34890;SDS011;21103;51.358;12.412;2022-10-12T14:10:04;6.05;;;3.28;;
34890;SDS011;21103;51.358;12.412;2022-10-12T14:12:45;8.38;;;3.15;;
34890;SDS011;21103;51.358;12.412;2022-10-12T14:15:14;4.35;;;2.03;;
34890;SDS011;21103;51.358;12.412;2022-10-12T14:17:41;15.15;;;3.55;;
34890;SDS011;21103;51.358;12.412;2022-10-12T14:20:15;7.70;;;2.10;;
34890;SDS011;21103;51.358;12.412;2022-10-12T14:22:50;8.10;;;2.53;;
34890;SDS011;21103;51.358;12.412;2022-10-12T14:25:17;8.88;;;3.08;;
34890;SDS011;21103;51.358;12.412;2022-10-12T14:27:57;74.82;;;15.23;;
34890;SDS011;21103;51.358;12.412;2022-10-12T14:30:29;8.70;;;2.57;;
34890;SDS011;21103;51.358;12.412;2022-10-12T14:33:10;6.20;;;2.03;;
34890;SDS011;21103;51.358;12.412;2022-10-12T14:35:37;5.05;;;2.00;;
34890;SDS011;21103;51.358;12.412;2022-10-12T14:40:53;88.25;;;22.45;;
34890;SDS011;21103;51.358;12.412;2022-10-12T14:43:19;6.15;;;2.17;;
34890;SDS011;21103;51.358;12.412;2022-10-12T14:45:48;4.15;;;2.15;;
34890;SDS011;21103;51.358;12.412;2022-10-12T14:48:17;6.22;;;2.17;;
34890;SDS011;21103;51.358;12.412;2022-10-12T14:50:44;12.50;;;4.35;;
34890;SDS011;21103;51.358;12.412;2022-10-12T14:53:11;8.68;;;2.40;;
34890;SDS011;21103;51.358;12.412;2022-10-12T14:55:38;13.80;;;2.40;;
34890;SDS011;21103;51.358;12.412;2022-10-12T14:58:05;5.95;;;2.10;;
34890;SDS011;21103;51.358;12.412;2022-10-12T15:00:35;7.80;;;2.00;;
34890;SDS011;21103;51.358;12.412;2022-10-12T15:03:01;8.40;;;2.20;;
34890;SDS011;21103;51.358;12.412;2022-10-12T15:05:28;10.68;;;2.33;;
34890;SDS011;21103;51.358;12.412;2022-10-12T15:07:58;7.53;;;2.47;;
34890;SDS011;21103;51.358;12.412;2022-10-12T15:10:24;3.75;;;2.05;;
34890;SDS011;21103;51.358;12.412;2022-10-12T15:12:51;6.28;;;1.75;;
34890;SDS011;21103;51.358;12.412;2022-10-12T15:15:35;9.88;;;2.72;;
34890;SDS011;21103;51.358;12.412;2022-10-12T15:18:06;5.32;;;1.70;;
34890;SDS011;21103;51.358;12.412;2022-10-12T15:20:33;11.60;;;2.03;;
34890;SDS011;21103;51.358;12.412;2022-10-12T15:22:59;5.38;;;1.73;;
34890;SDS011;21103;51.358;12.412;2022-10-12T15:28:17;5.85;;;2.25;;
34890;SDS011;21103;51.358;12.412;2022-10-12T15:30:43;4.80;;;2.20;;
34890;SDS011;21103;51.358;12.412;2022-10-12T15:33:10;4.55;;;2.15;;
34890;SDS011;21103;51.358;12.412;2022-10-12T15:35:36;3.03;;;1.83;;
34890;SDS011;21103;51.358;12.412;2022-10-12T15:38:03;3.20;;;1.80;;
34890;SDS011;21103;51.358;12.412;2022-10-12T15:40:29;10.70;;;2.05;;
34890;SDS011;21103;51.358;12.412;2022-10-12T15:42:55;5.95;;;2.70;;
34890;SDS011;21103;51.358;12.412;2022-10-12T15:45:32;4.20;;;1.92;;
34890;SDS011;21103;51.358;12.412;2022-10-12T15:47:59;6.05;;;2.78;;
34890;SDS011;21103;51.358;12.412;2022-10-12T15:50:27;6.25;;;2.40;;
34890;SDS011;21103;51.358;12.412;2022-10-12T15:52:57;5.18;;;2.65;;
34890;SDS011;21103;51.358;12.412;2022-10-12T15:55:23;6.40;;;2.70;;
34890;SDS011;21103;51.358;12.412;2022-10-12T15:57:50;6.70;;;2.97;;
34890;SDS011;21103;51.358;12.412;2022-10-12T16:00:17;5.47;;;2.72;;
34890;SDS011;21103;51.358;12.412;2022-10-12T16:02:45;9.35;;;2.97;;
34890;SDS011;21103;51.358;12.412;2022-10-12T16:07:50;6.82;;;2.83;;
34890;SDS011;21103;51.358;12.412;2022-10-12T16:10:17;7.05;;;2.80;;
34890;SDS011;21103;51.358;12.412;2022-10-12T16:12:46;3.88;;;2.40;;
34890;SDS011;21103;51.358;12.412;2022-10-12T16:15:14;7.03;;;2.72;;
34890;SDS011;21103;51.358;12.412;2022-10-12T16:17:45;5.80;;;2.78;;
34890;SDS011;21103;51.358;12.412;2022-10-12T16:20:11;8.60;;;3.30;;
34890;SDS011;21103;51.358;12.412;2022-10-12T16:22:37;5.43;;;3.08;;
34890;SDS011;21103;51.358;12.412;2022-10-12T16:25:04;8.13;;;2.85;;
34890;SDS011;21103;51.358;12.412;2022-10-12T16:27:31;9.02;;;2.85;;
34890;SDS011;21103;51.358;12.412;2022-10-12T16:29:57;6.60;;;2.65;;
34890;SDS011;21103;51.358;12.412;2022-10-12T16:32:22;5.50;;;3.10;;
34890;SDS011;21103;51.358;12.412;2022-10-12T16:34:48;6.95;;;3.10;;
34890;SDS011;21103;51.358;12.412;2022-10-12T16:37:13;5.95;;;2.70;;
34890;SDS011;21103;51.358;12.412;2022-10-12T16:39:40;4.72;;;2.63;;
34890;SDS011;21103;51.358;12.412;2022-10-12T16:42:05;6.50;;;3.65;;
34890;SDS011;21103;51.358;12.412;2022-10-12T16:44:31;6.20;;;3.25;;
34890;SDS011;21103;51.358;12.412;2022-10-12T16:46:56;9.55;;;3.90;;